Time;durP1;ratioP1;P1;durP2;ratioP2;P2;SDS_P1;SDS_P2;PMS_P1;PMS_P2;Temp;Humidity;BMP_temperature;BMP_pressure;BME280_temperature;BME280_humidity;BME280_pressure;Samples;Min_cycle;Max_cycle;Signal;HPM_P1;HPM_P2
2021/12/05 00:23:58;;;;;;;23.30;5.80;;;24.00;36.60;;;;;;5039047;28;20127;-64
2021/12/05 00:26:27;;;;;;;29.15;5.78;;;23.90;37.30;;;;;;5033270;28;20317;-63
2021/12/05 00:31:46;;;;;;;27.13;5.03;;;23.70;39.20;;;;;;5032536;28;20156;-65
2021/12/05 00:50:31;;;;;;;50.40;7.45;;;22.70;41.80;;;;;;5032015;28;20120;-64
2021/12/05 00:53:49;;;;;;;39.05;7.68;;;22.50;42.70;;;;;;5032255;28;20519;-64
2021/12/05 01:14:49;;;;;;;41.45;10.88;;;21.70;44.20;;;;;;5012309;28;20087;-66
2021/12/05 01:17:18;;;;;;;54.42;11.73;;;21.60;44.60;;;;;;5031378;28;20062;-65
2021/12/05 01:19:48;;;;;;;66.55;12.68;;;21.60;44.70;;;;;;5014782;28;20094;-64
2021/12/05 01:22:18;;;;;;;44.42;12.68;;;21.50;45.00;;;;;;5028755;28;20083;-64
2021/12/05 01:27:35;;;;;;;61.58;15.27;;;21.20;45.80;;;;;;5031721;28;20094;-66
2021/12/05 01:30:14;;;;;;;53.65;16.38;;;21.20;46.40;;;;;;5029455;28;20136;-66
2021/12/05 01:33:02;;;;;;;64.78;17.98;;;21.10;46.70;;;;;;5046525;28;20070;-64
2021/12/05 01:35:50;;;;;;;;;;;21.10;47.60;;;;;;5031254;28;20168;-67
2021/12/05 01:44:18;;;;;;;82.03;20.70;;;20.80;47.70;;;;;;5030904;28;20065;-65
2021/12/05 01:50:12;;;;;;;86.40;21.30;;;20.70;48.50;;;;;;5021749;28;20105;-66
2021/12/05 02:11:35;;;;;;;82.18;27.30;;;20.10;50.80;;;;;;5030579;28;20575;-64
2021/12/05 02:35:38;;;;;;;84.90;26.60;;;19.70;52.30;;;;;;5031467;28;20070;-64
2021/12/05 02:38:16;;;;;;;85.18;24.88;;;19.60;52.80;;;;;;5019484;28;20097;-65
2021/12/05 02:43:34;;;;;;;73.38;26.08;;;19.60;52.90;;;;;;5031331;28;20566;-65
2021/12/05 02:46:04;;;;;;;71.57;24.17;;;19.50;53.10;;;;;;5014187;28;20082;-66
2021/12/05 02:48:35;;;;;;;80.43;24.25;;;19.50;53.30;;;;;;5030902;28;20094;-65
2021/12/05 02:51:05;;;;;;;71.07;22.88;;;19.40;53.40;;;;;;5013534;28;20573;-65
2021/12/05 02:53:38;;;;;;;69.53;21.38;;;19.40;53.50;;;;;;5030924;28;20161;-65
2021/12/05 02:56:06;;;;;;;60.63;20.55;;;19.30;53.30;;;;;;5029409;28;20116;-66
2021/12/05 02:58:43;;;;;;;76.07;22.67;;;19.30;53.50;;;;;;5030709;28;20128;-65
2021/12/05 03:01:23;;;;;;;82.43;23.05;;;19.10;53.70;;;;;;5046195;28;20077;-66
2021/12/05 03:03:52;;;;;;;73.15;23.13;;;19.10;54.10;;;;;;5029901;28;20088;-65
2021/12/05 03:06:23;;;;;;;69.53;23.60;;;19.10;54.30;;;;;;5028826;28;20074;-65
2021/12/05 03:08:58;;;;;;;95.45;37.67;;;19.00;54.40;;;;;;5030990;28;20081;-64
2021/12/05 03:11:27;;;;;;;123.85;46.33;;;19.00;54.50;;;;;;5030423;28;20074;-66
2021/12/05 03:13:54;;;;;;;128.45;50.20;;;19.00;54.60;;;;;;5046658;28;20070;-64
2021/12/05 03:16:21;;;;;;;140.48;56.05;;;18.90;54.50;;;;;;5030483;28;20092;-64
2021/12/05 03:18:48;;;;;;;128.85;57.22;;;18.90;54.80;;;;;;5013286;28;20100;-65
2021/12/05 03:21:15;;;;;;;152.07;57.58;;;18.90;54.80;;;;;;5030743;28;20084;-66
2021/12/05 03:23:45;;;;;;;146.82;55.55;;;18.90;55.00;;;;;;5057306;28;20077;-65
2021/12/05 03:26:16;;;;;;;136.43;52.28;;;18.80;55.50;;;;;;5025473;28;20085;-65
2021/12/05 03:28:44;;;;;;;115.50;50.45;;;18.80;55.60;;;;;;5047801;28;20109;-63
2021/12/05 03:31:11;;;;;;;126.88;47.90;;;18.70;56.20;;;;;;5054142;28;20083;-63
2021/12/05 03:33:38;;;;;;;152.73;50.95;;;18.70;55.90;;;;;;5052656;28;20228;-62
2021/12/05 03:36:06;;;;;;;130.80;51.05;;;18.70;56.00;;;;;;5053529;28;20073;-63
2021/12/05 03:38:34;;;;;;;130.18;49.45;;;18.60;56.20;;;;;;5037591;28;20081;-62
2021/12/05 03:41:00;;;;;;;139.30;51.92;;;18.60;56.30;;;;;;5062452;28;20078;-64
2021/12/05 03:43:27;;;;;;;142.30;49.33;;;18.50;56.10;;;;;;5049356;28;20466;-61
2021/12/05 03:45:57;;;;;;;133.93;52.40;;;18.50;56.90;;;;;;5031130;28;20073;-63
2021/12/05 03:48:27;;;;;;;131.43;50.83;;;18.50;56.10;;;;;;5030682;28;20478;-63
2021/12/05 03:50:55;;;;;;;124.57;49.22;;;18.50;56.10;;;;;;5041134;28;20101;-63
2021/12/05 03:53:22;;;;;;;120.65;48.38;;;18.50;55.90;;;;;;5034210;28;20084;-62
2021/12/05 03:55:51;;;;;;;128.98;45.72;;;18.40;55.70;;;;;;5055308;28;20164;-63
2021/12/05 03:58:19;;;;;;;101.28;41.83;;;18.40;55.60;;;;;;5030544;28;20071;-61
2021/12/05 04:00:52;;;;;;;115.50;43.10;;;18.40;55.60;;;;;;5050549;28;20131;-62
2021/12/05 04:03:22;;;;;;;109.28;40.58;;;18.40;55.20;;;;;;5049483;28;20078;-62
2021/12/05 04:05:49;;;;;;;91.03;39.05;;;18.40;54.90;;;;;;5030207;28;20196;-63
2021/12/05 04:08:18;;;;;;;106.32;39.97;;;18.30;54.80;;;;;;5052509;28;20085;-59
2021/12/05 04:10:48;;;;;;;94.07;38.45;;;18.30;54.60;;;;;;5055234;28;20093;-61
2021/12/05 04:13:15;;;;;;;113.13;38.65;;;18.20;55.00;;;;;;5034247;28;20078;-62
2021/12/05 04:15:43;;;;;;;95.00;36.80;;;18.20;55.20;;;;;;5034282;28;20483;-62
2021/12/05 04:18:09;;;;;;;104.90;35.53;;;18.10;55.20;;;;;;5030538;28;20614;-63
2021/12/05 04:20:36;;;;;;;94.60;34.38;;;18.10;55.10;;;;;;5048548;28;20073;-60
2021/12/05 04:23:03;;;;;;;105.15;34.50;;;18.00;55.30;;;;;;5049690;28;21401;-63
2021/12/05 04:25:34;;;;;;;103.25;33.00;;;18.00;55.30;;;;;;5039005;28;20478;-62
2021/12/05 04:28:00;;;;;;;89.15;32.30;;;18.00;55.30;;;;;;5047840;28;20102;-63
2021/12/05 04:30:26;;;;;;;98.32;34.35;;;18.00;55.60;;;;;;5030078;28;20070;-63
2021/12/05 04:32:53;;;;;;;104.35;34.05;;;17.90;55.80;;;;;;5049896;28;20109;-63
2021/12/05 04:35:20;;;;;;;103.60;33.08;;;17.90;55.50;;;;;;5051236;28;20086;-62
2021/12/05 04:37:46;;;;;;;92.15;33.00;;;17.90;55.20;;;;;;5029639;28;20108;-62
2021/12/05 04:40:13;;;;;;;84.88;33.10;;;17.80;55.10;;;;;;5037337;28;20066;-63
2021/12/05 04:42:40;;;;;;;94.55;32.28;;;17.90;54.80;;;;;;5032852;28;20082;-62
2021/12/05 04:45:20;;;;;;;94.85;32.20;;;17.90;54.90;;;;;;5048561;28;20105;-63
2021/12/05 04:47:47;;;;;;;102.53;30.55;;;17.90;54.40;;;;;;5047408;28;20521;-61
2021/12/05 04:50:16;;;;;;;77.75;30.55;;;17.80;54.70;;;;;;5032322;28;20168;-61
2021/12/05 04:52:43;;;;;;;89.28;29.77;;;17.70;54.80;;;;;;5029956;28;20536;-61
2021/12/05 04:55:11;;;;;;;72.00;28.05;;;17.70;54.80;;;;;;5015892;28;20097;-62
2021/12/05 04:57:38;;;;;;;72.97;28.95;;;17.70;54.80;;;;;;5036105;28;20097;-62
2021/12/05 05:00:14;;;;;;;87.57;29.10;;;17.70;55.00;;;;;;5030926;28;20157;-61
2021/12/05 05:02:41;;;;;;;79.05;27.92;;;17.60;55.20;;;;;;5031236;28;20089;-61
2021/12/05 05:05:10;;;;;;;74.55;27.45;;;17.60;55.30;;;;;;5047545;28;20440;-62
2021/12/05 05:07:38;;;;;;;71.38;26.55;;;17.50;55.40;;;;;;5044338;28;20447;-63
2021/12/05 05:10:31;;;;;;;72.80;26.55;;;17.50;55.50;;;;;;5048593;28;20112;-61
2021/12/05 05:12:58;;;;;;;60.25;24.80;;;17.40;55.80;;;;;;5030465;28;20128;-64
2021/12/05 05:15:27;;;;;;;66.20;23.52;;;17.40;56.10;;;;;;5033764;28;20081;-62
2021/12/05 05:17:55;;;;;;;49.72;20.35;;;17.40;55.90;;;;;;5032963;28;20199;-61
2021/12/05 05:20:52;;;;;;;52.90;19.40;;;17.40;55.60;;;;;;5046762;28;20074;-62
2021/12/05 05:23:24;;;;;;;50.72;19.35;;;17.40;55.50;;;;;;5037133;28;20074;-61
2021/12/05 05:40:13;;;;;;;41.63;16.48;;;17.30;55.80;;;;;;5037699;28;20100;-62
2021/12/05 05:45:20;;;;;;;51.25;17.77;;;17.20;56.00;;;;;;5031282;28;20096;-62
2021/12/05 05:50:15;;;;;;;45.97;17.77;;;17.10;56.60;;;;;;5029812;28;20200;-64
2021/12/05 05:52:42;;;;;;;52.72;18.65;;;17.20;56.80;;;;;;5034285;28;20557;-64
2021/12/05 05:55:08;;;;;;;;;;;17.10;56.70;;;;;;5043769;28;20098;-63
2021/12/05 05:57:41;;;;;;;45.97;18.45;;;17.00;57.10;;;;;;5036990;28;20001;-62
2021/12/05 06:00:28;;;;;;;52.95;19.90;;;17.00;57.20;;;;;;5032243;28;20090;-63
2021/12/05 06:05:40;;;;;;;45.58;19.60;;;17.00;57.10;;;;;;5046562;28;20076;-67
2021/12/05 06:08:06;;;;;;;45.65;19.58;;;17.00;57.90;;;;;;5048547;28;20532;-65
2021/12/05 06:10:33;;;;;;;50.13;19.42;;;17.00;58.10;;;;;;5029178;28;20605;-65
2021/12/05 06:13:00;;;;;;;50.88;19.55;;;17.00;58.20;;;;;;5029429;28;20129;-67
2021/12/05 06:15:28;;;;;;;57.28;21.27;;;16.90;58.20;;;;;;5030090;28;20074;-67
2021/12/05 06:17:55;;;;;;;67.90;23.23;;;16.90;57.80;;;;;;5046753;28;20490;-66
2021/12/05 06:20:30;;;;;;;60.15;22.55;;;16.80;58.60;;;;;;5031641;28;20073;-66
2021/12/05 06:22:59;;;;;;;53.20;20.90;;;16.80;59.50;;;;;;5031714;28;20076;-66
2021/12/05 06:25:28;;;;;;;60.33;21.55;;;16.80;59.50;;;;;;5050868;28;20085;-66
2021/12/05 06:28:02;;;;;;;60.83;22.95;;;16.80;59.70;;;;;;5046796;28;20424;-67
2021/12/05 06:48:42;;;;;;;74.72;26.90;;;16.40;61.40;;;;;;5036981;28;20093;-66
2021/12/05 06:51:12;;;;;;;89.90;29.42;;;16.40;61.20;;;;;;5047414;28;20096;-67
2021/12/05 06:53:39;;;;;;;84.18;27.02;;;16.40;61.00;;;;;;5062131;28;20065;-65
2021/12/05 06:56:07;;;;;;;95.20;28.92;;;16.40;60.70;;;;;;5028448;28;20436;-67
2021/12/05 06:58:34;;;;;;;90.38;27.73;;;16.40;60.70;;;;;;5023863;28;20074;-71
2021/12/05 07:01:03;;;;;;;89.50;29.55;;;16.40;60.70;;;;;;5032555;28;20329;-66
2021/12/05 07:03:30;;;;;;;102.38;28.48;;;16.40;61.10;;;;;;5029235;28;20085;-67
2021/12/05 07:06:03;;;;;;;;;;;16.40;61.10;;;;;;5029576;28;20079;-66
2021/12/05 07:08:34;;;;;;;85.70;26.90;;;16.40;61.30;;;;;;5028339;28;19973;-66
2021/12/05 07:21:41;;;;;;;85.88;29.52;;;16.30;62.40;;;;;;5029039;28;20440;-66
2021/12/05 07:24:24;;;;;;;105.75;30.40;;;16.30;62.40;;;;;;5035035;28;20105;-65
2021/12/05 07:40:37;;;;;;;81.68;26.05;;;16.10;60.80;;;;;;5026661;28;20070;-65
2021/12/05 07:43:06;;;;;;;74.50;24.38;;;16.10;60.00;;;;;;5033016;28;20077;-66
2021/12/05 07:45:42;;;;;;;73.32;23.10;;;16.20;59.00;;;;;;5026349;28;20078;-67
2021/12/05 07:48:15;;;;;;;65.00;22.88;;;16.20;58.40;;;;;;5043932;28;20089;-67
2021/12/05 07:50:54;;;;;;;61.38;22.60;;;16.20;58.10;;;;;;5044813;28;20478;-66
2021/12/05 07:53:30;;;;;;;69.40;22.55;;;16.10;58.00;;;;;;5044718;28;20070;-65
2021/12/05 07:56:05;;;;;;;65.70;22.27;;;16.10;57.90;;;;;;5029558;28;20062;-66
2021/12/05 08:14:19;;;;;;;63.25;23.08;;;16.10;57.50;;;;;;5028461;28;20074;-66
2021/12/05 08:17:49;;;;;;;52.30;17.90;;;16.00;57.00;;;;;;5033315;28;20173;-66
2021/12/05 08:20:16;;;;;;;51.78;17.52;;;15.90;56.30;;;;;;5016720;28;20140;-66
2021/12/05 08:22:43;;;;;;;56.22;16.40;;;15.90;56.00;;;;;;5031047;28;20240;-65
2021/12/05 08:25:12;;;;;;;53.38;17.58;;;15.90;55.40;;;;;;5031886;28;20076;-66
2021/12/05 08:27:53;;;;;;;45.55;16.70;;;15.90;55.70;;;;;;5034190;28;20635;-68
2021/12/05 08:30:32;;;;;;;42.45;14.95;;;15.90;56.00;;;;;;5038541;28;20070;-67
2021/12/05 08:39:04;;;;;;;33.90;14.02;;;16.00;54.80;;;;;;5042856;28;20076;-65
2021/12/05 09:08:25;;;;;;;31.85;10.35;;;15.70;53.70;;;;;;5033232;28;20077;-66
2021/12/05 09:20:33;;;;;;;39.63;11.30;;;15.30;58.10;;;;;;5031447;28;20076;-67
2021/12/05 09:22:44;;;;;;;39.50;12.38;;;15.30;58.20;;;;;;5027930;28;20074;-65
2021/12/05 09:30:47;;;;;;;41.92;12.30;;;15.30;57.70;;;;;;5030586;28;20212;-67
2021/12/05 10:09:34;;;;;;;29.65;11.00;;;14.90;56.90;;;;;;5030953;28;20591;-66
2021/12/05 10:15:14;;;;;;;56.17;12.30;;;14.90;56.60;;;;;;5030786;28;20070;-67
2021/12/05 10:18:23;;;;;;;47.70;11.00;;;14.90;57.20;;;;;;5029632;28;20172;-66
2021/12/05 10:34:42;;;;;;;37.63;10.25;;;14.80;57.50;;;;;;5031186;28;20073;-68
2021/12/05 10:37:18;;;;;;;35.45;10.68;;;14.90;57.50;;;;;;5045760;28;20447;-67
2021/12/05 10:39:45;;;;;;;39.33;10.27;;;14.90;57.80;;;;;;5045275;28;20074;-68
2021/12/05 10:42:42;;;;;;;39.50;10.60;;;14.80;58.00;;;;;;5030323;28;20088;-66
2021/12/05 10:45:27;;;;;;;37.05;12.55;;;14.70;58.20;;;;;;5045398;28;20117;-67
2021/12/05 10:47:56;;;;;;;39.95;11.15;;;14.60;58.20;;;;;;5028794;28;20081;-66
2021/12/05 10:50:40;;;;;;;33.38;12.52;;;14.70;58.50;;;;;;5028741;28;20128;-63
2021/12/05 10:53:19;;;;;;;41.85;14.00;;;14.70;57.80;;;;;;5029904;28;20146;-66
2021/12/05 10:55:46;;;;;;;39.25;11.57;;;14.70;57.90;;;;;;5028461;28;20104;-67
2021/12/05 10:58:12;;;;;;;34.03;10.55;;;14.70;58.00;;;;;;5012445;28;20070;-67
2021/12/05 11:00:39;;;;;;;;;;;14.70;57.70;;;;;;5029314;28;20188;-66
2021/12/05 11:03:31;;;;;;;29.42;9.70;;;14.70;57.90;;;;;;5027476;28;19958;-67
2021/12/05 11:05:58;;;;;;;29.63;10.98;;;14.60;57.90;;;;;;5043674;28;20440;-65
2021/12/05 11:08:37;;;;;;;32.90;10.27;;;14.50;57.20;;;;;;5026067;28;20081;-65
2021/12/05 11:11:12;;;;;;;35.85;9.55;;;14.50;56.60;;;;;;5027295;28;20120;-67
2021/12/05 11:13:43;;;;;;;29.30;9.45;;;14.50;56.70;;;;;;5045160;28;20077;-66
2021/12/05 11:16:47;;;;;;;25.75;9.63;;;14.40;56.60;;;;;;5045305;28;20070;-65
2021/12/05 11:19:21;;;;;;;28.48;9.00;;;14.40;56.70;;;;;;5027240;28;20100;-65
2021/12/05 11:22:00;;;;;;;27.35;9.35;;;14.40;56.80;;;;;;5027669;28;20066;-67
2021/12/05 11:24:38;;;;;;;26.33;8.05;;;14.40;56.40;;;;;;5042416;28;20097;-65
2021/12/05 11:27:10;;;;;;;31.65;8.25;;;14.40;56.40;;;;;;5033415;28;20108;-66
2021/12/05 11:29:42;;;;;;;24.05;8.15;;;14.40;56.30;;;;;;5028616;28;20168;-65
2021/12/05 11:32:11;;;;;;;30.00;7.30;;;14.30;56.40;;;;;;5028736;28;20120;-66
2021/12/05 11:34:38;;;;;;;19.88;7.32;;;14.30;55.60;;;;;;5029240;28;20090;-67
2021/12/05 11:37:04;;;;;;;;;;;14.30;55.70;;;;;;5028791;28;20505;-67
2021/12/05 11:39:31;;;;;;;24.05;6.63;;;14.30;56.00;;;;;;5026783;28;20073;-66
2021/12/05 11:41:57;;;;;;;22.73;6.55;;;14.30;56.00;;;;;;5044677;28;20393;-66
2021/12/05 11:44:24;;;;;;;28.83;6.90;;;14.30;55.40;;;;;;5028226;28;20074;-67
2021/12/05 11:46:51;;;;;;;20.63;7.15;;;14.30;55.40;;;;;;5031405;28;20086;-68
2021/12/05 11:49:25;;;;;;;32.03;7.97;;;14.30;55.90;;;;;;5030726;28;20140;-67
2021/12/05 11:51:57;;;;;;;48.33;18.00;;;14.30;55.80;;;;;;5031972;28;20134;-66
2021/12/05 11:54:26;;;;;;;52.42;20.40;;;14.20;56.20;;;;;;5030979;28;20093;-66
2021/12/05 11:57:13;;;;;;;54.38;22.10;;;14.20;56.40;;;;;;5030170;28;20181;-65
2021/12/05 11:59:44;;;;;;;52.25;19.17;;;14.20;56.50;;;;;;5048765;28;20136;-66
2021/12/05 12:02:20;;;;;;;40.00;17.15;;;14.20;56.50;;;;;;5031710;28;20413;-65
2021/12/05 12:05:04;;;;;;;39.70;14.50;;;14.10;56.40;;;;;;5032644;28;20085;-65
2021/12/05 12:07:42;;;;;;;33.10;10.45;;;14.10;56.20;;;;;;5030363;28;20544;-67
2021/12/05 12:10:21;;;;;;;26.52;8.35;;;14.10;57.10;;;;;;5048250;28;20097;-64
2021/12/05 12:12:55;;;;;;;25.33;8.23;;;14.00;56.80;;;;;;5031189;28;20085;-67
2021/12/05 12:15:25;;;;;;;23.02;7.50;;;14.00;56.80;;;;;;5032809;28;20073;-65
2021/12/05 12:17:55;;;;;;;19.85;6.28;;;14.00;56.70;;;;;;5048092;28;20074;-65
2021/12/05 12:20:25;;;;;;;28.65;6.60;;;14.00;56.50;;;;;;5048833;28;20104;-68
2021/12/05 12:22:55;;;;;;;22.08;5.97;;;14.00;56.50;;;;;;5031631;28;20145;-68
2021/12/05 12:25:25;;;;;;;15.30;5.72;;;14.00;56.50;;;;;;5030555;28;20077;-66
2021/12/05 12:27:52;;;;;;;15.55;5.60;;;14.00;56.30;;;;;;5031680;28;20101;-65
2021/12/05 12:30:24;;;;;;;15.80;5.80;;;13.90;56.50;;;;;;5031597;28;20082;-67
2021/12/05 12:33:02;;;;;;;17.77;5.57;;;13.90;56.40;;;;;;5032178;28;20165;-68
2021/12/05 12:35:33;;;;;;;19.00;5.30;;;13.90;56.50;;;;;;5033623;28;20152;-66
2021/12/05 12:38:07;;;;;;;18.73;4.95;;;13.90;56.30;;;;;;5031826;28;20069;-66
2021/12/05 12:40:47;;;;;;;10.48;4.70;;;13.90;56.30;;;;;;5031231;28;20065;-67
2021/12/05 12:43:38;;;;;;;13.65;5.22;;;13.90;56.00;;;;;;5029988;28;20525;-67
2021/12/05 12:46:19;;;;;;;15.80;4.70;;;13.90;56.00;;;;;;5030063;28;20074;-68
2021/12/05 12:48:48;;;;;;;13.13;4.93;;;13.90;56.00;;;;;;5032143;28;20220;-66
2021/12/05 12:51:34;;;;;;;14.63;4.68;;;13.80;55.90;;;;;;5047169;28;20555;-66
2021/12/05 12:54:07;;;;;;;18.13;4.40;;;13.80;56.40;;;;;;5047360;28;20077;-67
2021/12/05 12:56:34;;;;;;;13.52;4.13;;;13.80;55.60;;;;;;5031599;28;20459;-66
2021/12/05 12:59:17;;;;;;;12.02;4.25;;;13.80;55.20;;;;;;5047266;28;20839;-66
2021/12/05 13:04:55;;;;;;;15.38;4.40;;;13.70;55.80;;;;;;5031695;28;20069;-68
2021/12/05 13:09:57;;;;;;;12.52;4.22;;;13.80;55.80;;;;;;5029674;28;20074;-66
2021/12/05 13:10:40;;;;;;;15.00;4.05;;;13.80;55.80;;;;;;5031816;28;20118;-68
2021/12/05 13:13:25;;;;;;;13.60;4.32;;;13.70;56.40;;;;;;5032215;28;20073;-68
2021/12/05 13:15:57;;;;;;;13.18;4.32;;;13.70;56.90;;;;;;5031959;28;20165;-66
2021/12/05 13:18:34;;;;;;;12.00;4.35;;;13.70;57.10;;;;;;5031930;28;20441;-67
2021/12/05 13:21:01;;;;;;;13.15;4.20;;;13.70;57.10;;;;;;5030143;28;20077;-68
2021/12/05 13:23:34;;;;;;;13.20;3.78;;;13.70;57.40;;;;;;5031183;28;20495;-68
2021/12/05 13:26:03;;;;;;;12.98;4.15;;;13.80;57.20;;;;;;5031563;28;20559;-65
2021/12/05 13:28:39;;;;;;;10.43;3.72;;;13.70;57.50;;;;;;5029810;28;20098;-65
2021/12/05 13:31:27;;;;;;;14.95;4.07;;;13.60;57.90;;;;;;5030515;28;20070;-66
2021/12/05 13:34:20;;;;;;;10.93;3.80;;;13.50;58.40;;;;;;5028218;28;20074;-67
2021/12/05 13:36:51;;;;;;;11.45;4.13;;;13.50;58.80;;;;;;5046482;28;20855;-66
2021/12/05 13:39:38;;;;;;;12.65;4.22;;;13.50;59.30;;;;;;5030052;28;20165;-66
2021/12/05 13:42:16;;;;;;;12.23;4.05;;;13.40;59.30;;;;;;5029002;28;20427;-67
2021/12/05 13:45:04;;;;;;;12.88;3.83;;;13.40;59.90;;;;;;5029101;28;20177;-66
2021/12/05 13:47:39;;;;;;;8.82;4.13;;;13.40;59.80;;;;;;5028505;28;20090;-68
2021/12/05 13:50:18;;;;;;;15.73;4.40;;;13.40;59.60;;;;;;5028831;28;20106;-67
2021/12/05 13:53:03;;;;;;;9.70;4.18;;;13.30;59.20;;;;;;5029397;28;20082;-68
2021/12/05 13:56:02;;;;;;;11.70;4.10;;;13.30;59.20;;;;;;5029646;28;20517;-66
2021/12/05 13:58:41;;;;;;;17.27;5.28;;;13.20;58.80;;;;;;5029161;28;20181;-67
2021/12/05 14:01:15;;;;;;;17.48;4.82;;;13.20;59.70;;;;;;5029409;28;20078;-66
2021/12/05 14:03:55;;;;;;;15.48;4.93;;;13.30;60.30;;;;;;5029395;28;20088;-66
2021/12/05 14:06:40;;;;;;;20.45;5.68;;;13.20;60.20;;;;;;5030145;28;20081;-66
2021/12/05 14:09:21;;;;;;;20.25;5.65;;;13.20;61.00;;;;;;5028706;28;20086;-68
2021/12/05 14:11:51;;;;;;;20.85;5.95;;;13.20;60.50;;;;;;5028963;28;20139;-66
2021/12/05 14:14:23;;;;;;;16.77;6.22;;;13.20;60.90;;;;;;5046095;28;20097;-68
2021/12/05 14:16:52;;;;;;;20.50;5.75;;;13.10;61.30;;;;;;5029442;28;20413;-68
2021/12/05 14:19:22;;;;;;;18.08;6.07;;;13.10;61.20;;;;;;5030925;28;20090;-67
2021/12/05 14:21:51;;;;;;;17.45;5.63;;;13.00;61.80;;;;;;5029108;28;20123;-68
2021/12/05 14:24:21;;;;;;;28.23;6.38;;;13.00;62.20;;;;;;5057762;28;20090;-66
2021/12/05 14:26:53;;;;;;;20.00;6.28;;;12.90;62.90;;;;;;5031517;28;20074;-68
2021/12/05 14:29:24;;;;;;;21.65;6.25;;;13.00;63.40;;;;;;5030336;28;20181;-66
2021/12/05 14:31:59;;;;;;;28.42;7.10;;;13.00;63.60;;;;;;5030409;28;20074;-67
2021/12/05 14:34:27;;;;;;;25.70;8.00;;;12.90;63.80;;;;;;5030282;28;20086;-68
2021/12/05 14:37:01;;;;;;;22.75;7.40;;;12.90;64.10;;;;;;5029986;28;20554;-67
2021/12/05 14:39:51;;;;;;;20.85;7.18;;;12.90;64.10;;;;;;5028616;28;20086;-68
2021/12/05 14:42:24;;;;;;;33.65;9.15;;;12.90;63.80;;;;;;5015074;28;20100;-68
2021/12/05 14:44:54;;;;;;;36.65;9.27;;;12.90;64.00;;;;;;5045552;28;20105;-65
2021/12/05 14:47:25;;;;;;;36.13;10.00;;;12.90;64.50;;;;;;5045255;28;20106;-66
2021/12/05 14:50:05;;;;;;;34.42;10.30;;;12.90;64.50;;;;;;5045003;28;20598;-69
2021/12/05 14:52:36;;;;;;;39.42;10.82;;;12.90;64.50;;;;;;5012535;28;20094;-68
2021/12/05 14:55:06;;;;;;;30.45;10.52;;;12.90;64.90;;;;;;5050104;28;20061;-68
2021/12/05 14:57:40;;;;;;;31.95;10.73;;;12.90;65.50;;;;;;5027850;28;20083;-67
2021/12/05 15:00:13;;;;;;;35.38;10.95;;;13.00;65.70;;;;;;5028088;28;20527;-65
2021/12/05 15:02:40;;;;;;;33.17;11.45;;;13.00;65.80;;;;;;5027372;28;20169;-66
2021/12/05 15:05:15;;;;;;;44.47;11.80;;;13.00;66.20;;;;;;5030223;28;20078;-66
2021/12/05 15:07:43;;;;;;;40.17;11.18;;;13.10;66.30;;;;;;5013435;28;20135;-67
2021/12/05 15:10:11;;;;;;;39.15;11.68;;;13.10;66.70;;;;;;5029289;28;20171;-68
2021/12/05 15:12:38;;;;;;;38.90;11.45;;;13.10;65.80;;;;;;5045896;28;20081;-66
2021/12/05 15:15:09;;;;;;;39.30;11.63;;;13.10;65.40;;;;;;5044859;28;20500;-66
2021/12/05 15:17:41;;;;;;;43.78;13.25;;;13.10;66.10;;;;;;5045285;28;20242;-68
2021/12/05 15:20:11;;;;;;;46.38;12.52;;;13.10;66.80;;;;;;5048447;28;20428;-68
2021/12/05 15:22:38;;;;;;;42.63;12.65;;;13.20;66.50;;;;;;5049848;28;20089;-66
2021/12/05 15:25:08;;;;;;;31.73;11.65;;;13.30;66.40;;;;;;5038918;28;20081;-68
2021/12/05 15:27:37;;;;;;;48.53;12.18;;;13.40;66.50;;;;;;5032378;28;20575;-66
2021/12/05 15:30:09;;;;;;;38.20;11.15;;;13.40;66.70;;;;;;5032382;28;20090;-66
2021/12/05 15:32:35;;;;;;;41.30;13.63;;;13.50;66.50;;;;;;5033658;28;20143;-68
2021/12/05 15:35:08;;;;;;;46.45;13.60;;;13.60;66.30;;;;;;5033743;28;20082;-66
2021/12/05 15:37:35;;;;;;;43.22;13.30;;;13.70;66.80;;;;;;5017134;28;20081;-66
2021/12/05 15:40:04;;;;;;;41.00;13.95;;;13.80;66.90;;;;;;5032314;28;20081;-65
2021/12/05 15:42:35;;;;;;;44.63;15.57;;;13.90;66.60;;;;;;5032479;28;20074;-66
2021/12/05 15:45:06;;;;;;;41.45;15.43;;;14.00;66.90;;;;;;5033119;28;20435;-66
2021/12/05 15:47:35;;;;;;;45.08;16.92;;;14.20;65.70;;;;;;5016204;28;20081;-67
2021/12/05 15:50:14;;;;;;;55.83;16.58;;;14.40;64.70;;;;;;5015643;28;20223;-65
2021/12/05 15:52:47;;;;;;;55.03;17.67;;;14.70;63.90;;;;;;5032117;28;20086;-66
2021/12/05 15:55:23;;;;;;;55.38;17.05;;;14.90;61.10;;;;;;5019420;28;20078;-65
2021/12/05 15:57:55;;;;;;;52.75;17.40;;;15.20;61.30;;;;;;5045460;28;20127;-65
2021/12/05 16:00:30;;;;;;;54.30;16.83;;;15.90;59.20;;;;;;5048414;28;20110;-64
2021/12/05 16:03:20;;;;;;;49.58;17.38;;;17.00;55.40;;;;;;5048374;28;20458;-67
2021/12/05 16:05:57;;;;;;;40.90;17.90;;;18.10;52.00;;;;;;5031417;28;20081;-68
2021/12/05 16:08:27;;;;;;;42.88;16.88;;;18.90;48.70;;;;;;5048679;28;20078;-67
2021/12/05 16:10:58;;;;;;;37.95;16.02;;;19.70;46.10;;;;;;5031837;28;20165;-65
2021/12/05 16:13:42;;;;;;;42.97;16.17;;;20.60;42.80;;;;;;5029629;28;20078;-67
2021/12/05 16:16:21;;;;;;;50.83;17.00;;;21.40;40.10;;;;;;5048547;28;20127;-66
2021/12/05 16:18:51;;;;;;;39.55;16.60;;;21.90;37.90;;;;;;5030837;28;20097;-67
2021/12/05 16:21:26;;;;;;;42.90;17.55;;;22.30;37.00;;;;;;5048428;28;20073;-67
2021/12/05 16:23:55;;;;;;;41.88;16.60;;;22.50;36.20;;;;;;5041720;28;20083;-66
2021/12/05 16:26:27;;;;;;;37.10;14.95;;;22.80;34.60;;;;;;5056364;28;20167;-65
2021/12/05 16:29:05;;;;;;;34.58;13.27;;;23.00;33.80;;;;;;5030960;28;20406;-66
2021/12/05 16:31:36;;;;;;;37.63;13.48;;;23.30;31.80;;;;;;5047002;28;20085;-67
2021/12/05 16:34:12;;;;;;;35.20;12.32;;;23.70;31.70;;;;;;5031361;28;20101;-67
2021/12/05 16:36:52;;;;;;;28.57;10.57;;;24.10;31.00;;;;;;5032195;28;20078;-68
2021/12/05 16:39:45;;;;;;;31.40;11.90;;;24.50;30.20;;;;;;5032496;28;20078;-68
2021/12/05 16:42:18;;;;;;;41.13;12.45;;;25.00;30.10;;;;;;5029790;28;20536;-68
2021/12/05 16:44:57;;;;;;;36.58;12.38;;;25.10;29.10;;;;;;5047897;28;20584;-68
2021/12/05 16:47:30;;;;;;;42.85;12.63;;;25.20;28.50;;;;;;5031206;28;20074;-64
2021/12/05 16:49:59;;;;;;;37.85;12.23;;;25.20;28.10;;;;;;5033423;28;20143;-67
2021/12/05 16:52:33;;;;;;;42.45;11.82;;;25.30;28.20;;;;;;5032705;28;20069;-67
2021/12/05 16:55:10;;;;;;;23.52;10.25;;;25.80;28.10;;;;;;5031416;28;20164;-66
2021/12/05 16:57:52;;;;;;;26.98;7.97;;;26.70;26.80;;;;;;5047086;28;20077;-66
2021/12/05 17:00:21;;;;;;;29.08;7.25;;;27.00;26.10;;;;;;5030797;28;20078;-68
2021/12/05 17:02:54;;;;;;;23.77;6.40;;;27.30;25.50;;;;;;5014937;28;20570;-66
2021/12/05 17:05:29;;;;;;;21.17;5.40;;;27.80;25.50;;;;;;5039822;28;20074;-65
2021/12/05 17:10:54;;;;;;;13.30;4.07;;;29.10;24.00;;;;;;5031861;28;20349;-66
2021/12/05 17:13:29;;;;;;;16.45;3.83;;;29.80;23.00;;;;;;5030252;28;20906;-65
2021/12/05 17:16:03;;;;;;;11.73;3.10;;;30.60;22.20;;;;;;5029264;28;20077;-67
2021/12/05 17:18:42;;;;;;;7.97;2.60;;;31.00;42.50;;;;;;5031027;28;20055;-67
2021/12/05 17:21:15;;;;;;;7.47;2.35;;;30.90;21.20;;;;;;5047273;28;20102;-65
2021/12/05 17:24:00;;;;;;;7.10;2.25;;;31.80;20.90;;;;;;5037881;28;20073;-67
2021/12/05 17:26:32;;;;;;;6.05;1.88;;;32.20;20.20;;;;;;5045754;28;20160;-68
2021/12/05 17:29:17;;;;;;;6.78;1.60;;;32.90;20.10;;;;;;5030877;28;20174;-66
2021/12/05 17:31:56;;;;;;;7.95;1.88;;;33.20;19.80;;;;;;5046872;28;20074;-65
2021/12/05 17:34:28;;;;;;;5.07;1.60;;;33.40;19.70;;;;;;5046665;28;20591;-66
2021/12/05 17:37:07;;;;;;;7.60;1.50;;;33.40;19.30;;;;;;5032396;28;20564;-65
2021/12/05 17:39:36;;;;;;;9.10;1.73;;;33.60;19.10;;;;;;5014405;28;20073;-67
2021/12/05 17:42:07;;;;;;;7.47;1.30;;;33.70;19.30;;;;;;5013952;28;20559;-65
2021/12/05 17:44:35;;;;;;;6.90;1.27;;;34.00;19.20;;;;;;5030415;28;20084;-67
2021/12/05 17:47:05;;;;;;;3.28;1.10;;;34.60;19.00;;;;;;5030282;28;20077;-65
2021/12/05 17:49:35;;;;;;;7.82;1.40;;;34.40;18.90;;;;;;5012636;28;20114;-65
2021/12/05 17:52:04;;;;;;;17.30;1.60;;;34.10;18.90;;;;;;5030530;28;20495;-67
2021/12/05 17:54:40;;;;;;;5.93;1.00;;;33.90;19.30;;;;;;5046448;28;20070;-65
2021/12/05 17:57:21;;;;;;;7.88;1.40;;;33.80;19.30;;;;;;5030953;28;20175;-66
2021/12/05 18:00:03;;;;;;;8.10;1.38;;;34.30;19.10;;;;;;5031075;28;20475;-68
2021/12/05 18:05:44;;;;;;;6.10;1.27;;;36.10;18.40;;;;;;5108041;27;20818;-64
2021/12/05 18:08:15;;;;;;;6.97;1.17;;;35.70;18.20;;;;;;5123546;27;20110;-68